sensor_id;sensor_type;location;lat;lon;timestamp;P1;P2;P0
47741;PMS5003;33504;52.066;6.096;2023-07-30T00:01:51;4;4;
47741;PMS5003;33504;52.066;6.096;2023-07-30T00:04:18;5;5;
47741;PMS5003;33504;52.066;6.096;2023-07-30T00:06:44;7;7;
47741;PMS5003;33504;52.066;6.096;2023-07-30T00:09:11;6;6;
47741;PMS5003;33504;52.066;6.096;2023-07-30T00:11:38;5;5;
47741;PMS5003;33504;52.066;6.096;2023-07-30T00:14:05;6;6;
47741;PMS5003;33504;52.066;6.096;2023-07-30T00:16:33;4;4;
47741;PMS5003;33504;52.066;6.096;2023-07-30T00:18:59;6;5;
47741;PMS5003;33504;52.066;6.096;2023-07-30T00:21:26;7;6;
47741;PMS5003;33504;52.066;6.096;2023-07-30T00:23:53;6;5;
47741;PMS5003;33504;52.066;6.096;2023-07-30T00:26:20;5;5;
47741;PMS5003;33504;52.066;6.096;2023-07-30T00:28:47;5;5;
47741;PMS5003;33504;52.066;6.096;2023-07-30T00:31:14;6;5;
47741;PMS5003;33504;52.066;6.096;2023-07-30T00:33:41;7;7;
47741;PMS5003;33504;52.066;6.096;2023-07-30T00:36:07;7;6;
47741;PMS5003;33504;52.066;6.096;2023-07-30T00:38:34;4;4;
47741;PMS5003;33504;52.066;6.096;2023-07-30T00:41:01;6;6;
47741;PMS5003;33504;52.066;6.096;2023-07-30T00:43:27;6;5;
47741;PMS5003;33504;52.066;6.096;2023-07-30T00:45:54;8;7;
47741;PMS5003;33504;52.066;6.096;2023-07-30T00:48:21;8;8;
47741;PMS5003;33504;52.066;6.096;2023-07-30T00:50:48;6;5;
47741;PMS5003;33504;52.066;6.096;2023-07-30T00:53:15;5;5;
47741;PMS5003;33504;52.066;6.096;2023-07-30T00:55:44;4;4;
47741;PMS5003;33504;52.066;6.096;2023-07-30T00:58:12;4;4;
47741;PMS5003;33504;52.066;6.096;2023-07-30T01:00:39;5;5;
47741;PMS5003;33504;52.066;6.096;2023-07-30T01:03:07;5;4;
47741;PMS5003;33504;52.066;6.096;2023-07-30T01:05:33;4;3;
47741;PMS5003;33504;52.066;6.096;2023-07-30T01:08:01;8;6;
47741;PMS5003;33504;52.066;6.096;2023-07-30T01:10:29;7;6;
47741;PMS5003;33504;52.066;6.096;2023-07-30T01:12:58;6;5;
47741;PMS5003;33504;52.066;6.096;2023-07-30T01:15:28;8;7;
47741;PMS5003;33504;52.066;6.096;2023-07-30T01:17:55;8;6;
47741;PMS5003;33504;52.066;6.096;2023-07-30T01:20:23;6;4;
47741;PMS5003;33504;52.066;6.096;2023-07-30T01:22:49;6;5;
47741;PMS5003;33504;52.066;6.096;2023-07-30T01:25:16;6;6;
47741;PMS5003;33504;52.066;6.096;2023-07-30T01:27:52;5;5;
47741;PMS5003;33504;52.066;6.096;2023-07-30T01:30:25;4;4;
47741;PMS5003;33504;52.066;6.096;2023-07-30T01:32:56;5;5;
47741;PMS5003;33504;52.066;6.096;2023-07-30T01:35:26;6;5;
47741;PMS5003;33504;52.066;6.096;2023-07-30T01:37:54;6;5;
47741;PMS5003;33504;52.066;6.096;2023-07-30T01:40:22;6;4;
47741;PMS5003;33504;52.066;6.096;2023-07-30T01:42:49;6;5;
47741;PMS5003;33504;52.066;6.096;2023-07-30T01:45:17;7;5;
47741;PMS5003;33504;52.066;6.096;2023-07-30T01:47:44;6;6;
47741;PMS5003;33504;52.066;6.096;2023-07-30T01:50:12;7;5;
47741;PMS5003;33504;52.066;6.096;2023-07-30T01:52:38;4;4;
47741;PMS5003;33504;52.066;6.096;2023-07-30T01:55:05;4;4;
47741;PMS5003;33504;52.066;6.096;2023-07-30T01:57:33;6;5;
47741;PMS5003;33504;52.066;6.096;2023-07-30T02:00:00;6;4;
47741;PMS5003;33504;52.066;6.096;2023-07-30T02:02:27;6;5;
47741;PMS5003;33504;52.066;6.096;2023-07-30T02:04:53;6;5;
47741;PMS5003;33504;52.066;6.096;2023-07-30T02:07:20;7;7;
47741;PMS5003;33504;52.066;6.096;2023-07-30T02:09:47;7;6;
47741;PMS5003;33504;52.066;6.096;2023-07-30T02:12:14;6;5;
47741;PMS5003;33504;52.066;6.096;2023-07-30T02:14:40;6;6;
47741;PMS5003;33504;52.066;6.096;2023-07-30T02:17:07;6;6;
47741;PMS5003;33504;52.066;6.096;2023-07-30T02:19:34;7;7;
47741;PMS5003;33504;52.066;6.096;2023-07-30T02:22:01;7;7;
47741;PMS5003;33504;52.066;6.096;2023-07-30T02:24:28;6;6;
47741;PMS5003;33504;52.066;6.096;2023-07-30T02:26:55;5;5;
47741;PMS5003;33504;52.066;6.096;2023-07-30T02:29:22;6;6;
47741;PMS5003;33504;52.066;6.096;2023-07-30T02:31:48;6;6;
47741;PMS5003;33504;52.066;6.096;2023-07-30T02:34:15;7;6;
47741;PMS5003;33504;52.066;6.096;2023-07-30T02:36:42;7;6;
47741;PMS5003;33504;52.066;6.096;2023-07-30T02:39:08;10;8;
47741;PMS5003;33504;52.066;6.096;2023-07-30T02:41:35;11;10;
47741;PMS5003;33504;52.066;6.096;2023-07-30T02:44:02;7;6;
47741;PMS5003;33504;52.066;6.096;2023-07-30T02:46:28;5;5;
47741;PMS5003;33504;52.066;6.096;2023-07-30T02:48:55;6;6;
47741;PMS5003;33504;52.066;6.096;2023-07-30T02:51:24;6;5;
47741;PMS5003;33504;52.066;6.096;2023-07-30T02:53:51;9;7;
47741;PMS5003;33504;52.066;6.096;2023-07-30T02:56:19;5;5;
47741;PMS5003;33504;52.066;6.096;2023-07-30T02:58:45;7;6;
47741;PMS5003;33504;52.066;6.096;2023-07-30T03:01:12;7;6;
47741;PMS5003;33504;52.066;6.096;2023-07-30T03:03:39;7;6;
47741;PMS5003;33504;52.066;6.096;2023-07-30T03:06:06;13;11;
47741;PMS5003;33504;52.066;6.096;2023-07-30T03:08:33;5;5;
47741;PMS5003;33504;52.066;6.096;2023-07-30T03:11:00;10;10;
47741;PMS5003;33504;52.066;6.096;2023-07-30T03:13:27;8;7;
47741;PMS5003;33504;52.066;6.096;2023-07-30T03:15:54;9;7;
47741;PMS5003;33504;52.066;6.096;2023-07-30T03:18:21;7;6;
47741;PMS5003;33504;52.066;6.096;2023-07-30T03:20:47;7;7;
47741;PMS5003;33504;52.066;6.096;2023-07-30T03:23:14;8;8;
47741;PMS5003;33504;52.066;6.096;2023-07-30T03:25:42;8;7;
47741;PMS5003;33504;52.066;6.096;2023-07-30T03:28:08;8;8;
47741;PMS5003;33504;52.066;6.096;2023-07-30T03:30:35;10;7;
47741;PMS5003;33504;52.066;6.096;2023-07-30T03:33:02;11;8;
47741;PMS5003;33504;52.066;6.096;2023-07-30T03:35:30;10;9;
47741;PMS5003;33504;52.066;6.096;2023-07-30T03:37:56;8;8;
47741;PMS5003;33504;52.066;6.096;2023-07-30T03:40:24;15;9;
47741;PMS5003;33504;52.066;6.096;2023-07-30T03:42:50;12;11;
47741;PMS5003;33504;52.066;6.096;2023-07-30T03:45:18;8;7;
47741;PMS5003;33504;52.066;6.096;2023-07-30T03:47:45;12;9;
47741;PMS5003;33504;52.066;6.096;2023-07-30T03:50:12;9;8;
47741;PMS5003;33504;52.066;6.096;2023-07-30T03:52:39;10;9;
47741;PMS5003;33504;52.066;6.096;2023-07-30T03:55:06;9;9;
47741;PMS5003;33504;52.066;6.096;2023-07-30T03:57:33;8;8;
47741;PMS5003;33504;52.066;6.096;2023-07-30T04:00:00;8;8;
47741;PMS5003;33504;52.066;6.096;2023-07-30T04:02:27;12;11;
47741;PMS5003;33504;52.066;6.096;2023-07-30T04:04:54;11;10;
47741;PMS5003;33504;52.066;6.096;2023-07-30T04:07:21;10;9;
47741;PMS5003;33504;52.066;6.096;2023-07-30T04:09:48;13;11;
47741;PMS5003;33504;52.066;6.096;2023-07-30T04:12:15;10;9;
47741;PMS5003;33504;52.066;6.096;2023-07-30T04:14:42;15;13;
47741;PMS5003;33504;52.066;6.096;2023-07-30T04:17:09;17;15;
47741;PMS5003;33504;52.066;6.096;2023-07-30T04:19:36;18;16;
47741;PMS5003;33504;52.066;6.096;2023-07-30T04:22:03;12;11;
47741;PMS5003;33504;52.066;6.096;2023-07-30T04:24:30;13;12;
47741;PMS5003;33504;52.066;6.096;2023-07-30T04:26:57;13;12;
47741;PMS5003;33504;52.066;6.096;2023-07-30T04:29:24;15;14;
47741;PMS5003;33504;52.066;6.096;2023-07-30T04:31:52;15;14;
47741;PMS5003;33504;52.066;6.096;2023-07-30T04:34:19;14;12;
47741;PMS5003;33504;52.066;6.096;2023-07-30T04:36:46;16;14;
47741;PMS5003;33504;52.066;6.096;2023-07-30T04:39:12;15;12;
47741;PMS5003;33504;52.066;6.096;2023-07-30T04:41:39;16;15;
47741;PMS5003;33504;52.066;6.096;2023-07-30T04:44:06;17;15;
47741;PMS5003;33504;52.066;6.096;2023-07-30T04:46:34;20;19;
47741;PMS5003;33504;52.066;6.096;2023-07-30T04:49:01;17;16;
47741;PMS5003;33504;52.066;6.096;2023-07-30T04:51:30;15;13;
47741;PMS5003;33504;52.066;6.096;2023-07-30T04:53:57;22;19;
47741;PMS5003;33504;52.066;6.096;2023-07-30T04:56:24;15;14;
47741;PMS5003;33504;52.066;6.096;2023-07-30T04:58:51;15;14;
47741;PMS5003;33504;52.066;6.096;2023-07-30T05:01:18;20;18;
47741;PMS5003;33504;52.066;6.096;2023-07-30T05:03:45;18;18;
47741;PMS5003;33504;52.066;6.096;2023-07-30T05:06:12;13;11;
47741;PMS5003;33504;52.066;6.096;2023-07-30T05:08:40;17;15;
47741;PMS5003;33504;52.066;6.096;2023-07-30T05:11:06;20;18;
47741;PMS5003;33504;52.066;6.096;2023-07-30T05:13:33;14;13;
47741;PMS5003;33504;52.066;6.096;2023-07-30T05:16:00;14;14;
47741;PMS5003;33504;52.066;6.096;2023-07-30T05:18:28;15;14;
47741;PMS5003;33504;52.066;6.096;2023-07-30T05:20:55;14;14;
47741;PMS5003;33504;52.066;6.096;2023-07-30T05:23:22;14;13;
47741;PMS5003;33504;52.066;6.096;2023-07-30T05:25:48;18;15;
47741;PMS5003;33504;52.066;6.096;2023-07-30T05:28:16;15;14;
47741;PMS5003;33504;52.066;6.096;2023-07-30T05:30:43;20;19;
47741;PMS5003;33504;52.066;6.096;2023-07-30T05:33:10;16;16;
47741;PMS5003;33504;52.066;6.096;2023-07-30T05:35:36;21;18;
47741;PMS5003;33504;52.066;6.096;2023-07-30T05:38:03;19;16;
47741;PMS5003;33504;52.066;6.096;2023-07-30T05:40:31;20;19;
47741;PMS5003;33504;52.066;6.096;2023-07-30T05:42:58;16;14;
47741;PMS5003;33504;52.066;6.096;2023-07-30T05:45:25;15;14;
47741;PMS5003;33504;52.066;6.096;2023-07-30T05:47:52;19;18;
47741;PMS5003;33504;52.066;6.096;2023-07-30T05:50:19;19;18;
47741;PMS5003;33504;52.066;6.096;2023-07-30T05:52:46;15;14;
47741;PMS5003;33504;52.066;6.096;2023-07-30T05:55:13;19;17;
47741;PMS5003;33504;52.066;6.096;2023-07-30T05:57:41;23;20;
47741;PMS5003;33504;52.066;6.096;2023-07-30T06:00:08;21;21;
47741;PMS5003;33504;52.066;6.096;2023-07-30T06:02:36;18;17;
47741;PMS5003;33504;52.066;6.096;2023-07-30T06:05:04;18;17;
47741;PMS5003;33504;52.066;6.096;2023-07-30T06:07:31;34;32;
47741;PMS5003;33504;52.066;6.096;2023-07-30T06:09:58;21;20;
47741;PMS5003;33504;52.066;6.096;2023-07-30T06:12:24;22;20;
47741;PMS5003;33504;52.066;6.096;2023-07-30T06:14:51;28;26;
47741;PMS5003;33504;52.066;6.096;2023-07-30T06:17:18;24;23;
47741;PMS5003;33504;52.066;6.096;2023-07-30T06:19:45;27;26;
47741;PMS5003;33504;52.066;6.096;2023-07-30T06:22:12;29;24;
47741;PMS5003;33504;52.066;6.096;2023-07-30T06:24:38;18;18;
47741;PMS5003;33504;52.066;6.096;2023-07-30T06:27:06;51;49;
47741;PMS5003;33504;52.066;6.096;2023-07-30T06:29:33;30;28;
47741;PMS5003;33504;52.066;6.096;2023-07-30T06:31:59;31;30;
47741;PMS5003;33504;52.066;6.096;2023-07-30T06:34:26;33;31;
47741;PMS5003;33504;52.066;6.096;2023-07-30T06:36:54;27;26;
47741;PMS5003;33504;52.066;6.096;2023-07-30T06:39:21;28;26;
47741;PMS5003;33504;52.066;6.096;2023-07-30T06:41:48;25;23;
47741;PMS5003;33504;52.066;6.096;2023-07-30T06:44:15;26;24;
47741;PMS5003;33504;52.066;6.096;2023-07-30T06:46:42;26;25;
47741;PMS5003;33504;52.066;6.096;2023-07-30T06:49:09;22;21;
47741;PMS5003;33504;52.066;6.096;2023-07-30T06:51:36;25;20;
47741;PMS5003;33504;52.066;6.096;2023-07-30T06:54:03;25;25;
47741;PMS5003;33504;52.066;6.096;2023-07-30T06:56:29;26;24;
47741;PMS5003;33504;52.066;6.096;2023-07-30T06:58:56;30;28;
47741;PMS5003;33504;52.066;6.096;2023-07-30T07:01:23;33;28;
47741;PMS5003;33504;52.066;6.096;2023-07-30T07:03:50;23;21;
47741;PMS5003;33504;52.066;6.096;2023-07-30T07:06:17;23;23;
47741;PMS5003;33504;52.066;6.096;2023-07-30T07:08:44;28;24;
47741;PMS5003;33504;52.066;6.096;2023-07-30T07:11:11;19;19;
47741;PMS5003;33504;52.066;6.096;2023-07-30T07:13:38;20;19;
47741;PMS5003;33504;52.066;6.096;2023-07-30T07:16:05;20;17;
47741;PMS5003;33504;52.066;6.096;2023-07-30T07:18:32;22;20;
47741;PMS5003;33504;52.066;6.096;2023-07-30T07:20:59;21;20;
47741;PMS5003;33504;52.066;6.096;2023-07-30T07:23:25;26;23;
47741;PMS5003;33504;52.066;6.096;2023-07-30T07:25:52;22;20;
47741;PMS5003;33504;52.066;6.096;2023-07-30T07:28:19;23;22;
47741;PMS5003;33504;52.066;6.096;2023-07-30T07:30:46;35;35;
47741;PMS5003;33504;52.066;6.096;2023-07-30T07:33:13;20;18;
47741;PMS5003;33504;52.066;6.096;2023-07-30T07:35:40;33;31;
47741;PMS5003;33504;52.066;6.096;2023-07-30T07:38:07;39;37;
47741;PMS5003;33504;52.066;6.096;2023-07-30T07:40:36;50;49;
47741;PMS5003;33504;52.066;6.096;2023-07-30T07:43:03;29;28;
47741;PMS5003;33504;52.066;6.096;2023-07-30T07:45:30;29;28;
47741;PMS5003;33504;52.066;6.096;2023-07-30T07:47:57;26;24;
47741;PMS5003;33504;52.066;6.096;2023-07-30T07:50:24;28;26;
47741;PMS5003;33504;52.066;6.096;2023-07-30T07:52:51;22;20;
47741;PMS5003;33504;52.066;6.096;2023-07-30T07:55:18;20;19;
47741;PMS5003;33504;52.066;6.096;2023-07-30T07:57:45;27;24;
47741;PMS5003;33504;52.066;6.096;2023-07-30T08:00:12;23;23;
47741;PMS5003;33504;52.066;6.096;2023-07-30T08:02:39;18;17;
47741;PMS5003;33504;52.066;6.096;2023-07-30T08:05:06;19;18;
47741;PMS5003;33504;52.066;6.096;2023-07-30T08:07:34;19;16;
47741;PMS5003;33504;52.066;6.096;2023-07-30T08:10:01;19;17;
47741;PMS5003;33504;52.066;6.096;2023-07-30T08:12:28;21;20;
47741;PMS5003;33504;52.066;6.096;2023-07-30T08:14:57;26;22;
47741;PMS5003;33504;52.066;6.096;2023-07-30T08:17:25;17;16;
47741;PMS5003;33504;52.066;6.096;2023-07-30T08:19:52;15;13;
47741;PMS5003;33504;52.066;6.096;2023-07-30T08:22:19;20;18;
47741;PMS5003;33504;52.066;6.096;2023-07-30T08:24:46;21;20;
47741;PMS5003;33504;52.066;6.096;2023-07-30T08:27:13;19;19;
47741;PMS5003;33504;52.066;6.096;2023-07-30T08:29:40;18;16;
47741;PMS5003;33504;52.066;6.096;2023-07-30T08:32:07;19;15;
47741;PMS5003;33504;52.066;6.096;2023-07-30T08:34:34;19;17;
47741;PMS5003;33504;52.066;6.096;2023-07-30T08:37:00;21;16;
47741;PMS5003;33504;52.066;6.096;2023-07-30T08:39:28;16;15;
47741;PMS5003;33504;52.066;6.096;2023-07-30T08:41:54;13;13;
47741;PMS5003;33504;52.066;6.096;2023-07-30T08:44:22;17;15;
47741;PMS5003;33504;52.066;6.096;2023-07-30T08:46:49;17;16;
47741;PMS5003;33504;52.066;6.096;2023-07-30T08:49:17;18;17;
47741;PMS5003;33504;52.066;6.096;2023-07-30T08:51:44;17;17;
47741;PMS5003;33504;52.066;6.096;2023-07-30T08:54:15;19;18;
47741;PMS5003;33504;52.066;6.096;2023-07-30T08:56:43;18;18;
47741;PMS5003;33504;52.066;6.096;2023-07-30T08:59:10;20;20;
47741;PMS5003;33504;52.066;6.096;2023-07-30T09:01:38;15;14;
47741;PMS5003;33504;52.066;6.096;2023-07-30T09:04:06;22;18;
47741;PMS5003;33504;52.066;6.096;2023-07-30T09:06:33;16;16;
47741;PMS5003;33504;52.066;6.096;2023-07-30T09:09:00;20;18;
47741;PMS5003;33504;52.066;6.096;2023-07-30T09:11:27;20;19;
47741;PMS5003;33504;52.066;6.096;2023-07-30T09:13:55;19;16;
47741;PMS5003;33504;52.066;6.096;2023-07-30T09:16:24;16;16;
47741;PMS5003;33504;52.066;6.096;2023-07-30T09:18:51;18;15;
47741;PMS5003;33504;52.066;6.096;2023-07-30T09:21:19;14;14;
47741;PMS5003;33504;52.066;6.096;2023-07-30T09:23:55;16;14;
47741;PMS5003;33504;52.066;6.096;2023-07-30T09:26:23;13;13;
47741;PMS5003;33504;52.066;6.096;2023-07-30T09:28:50;16;15;
47741;PMS5003;33504;52.066;6.096;2023-07-30T09:31:17;15;13;
47741;PMS5003;33504;52.066;6.096;2023-07-30T09:33:45;14;14;
47741;PMS5003;33504;52.066;6.096;2023-07-30T09:36:11;12;12;
47741;PMS5003;33504;52.066;6.096;2023-07-30T09:38:39;13;12;
47741;PMS5003;33504;52.066;6.096;2023-07-30T09:41:08;14;12;
47741;PMS5003;33504;52.066;6.096;2023-07-30T09:43:35;12;9;
47741;PMS5003;33504;52.066;6.096;2023-07-30T09:46:02;13;13;
47741;PMS5003;33504;52.066;6.096;2023-07-30T09:48:30;12;12;
47741;PMS5003;33504;52.066;6.096;2023-07-30T09:50:58;10;10;
47741;PMS5003;33504;52.066;6.096;2023-07-30T09:53:26;12;10;
47741;PMS5003;33504;52.066;6.096;2023-07-30T09:55:54;10;9;
47741;PMS5003;33504;52.066;6.096;2023-07-30T09:58:21;26;25;
47741;PMS5003;33504;52.066;6.096;2023-07-30T10:00:48;28;27;
47741;PMS5003;33504;52.066;6.096;2023-07-30T10:03:18;11;10;
47741;PMS5003;33504;52.066;6.096;2023-07-30T10:05:45;17;16;
47741;PMS5003;33504;52.066;6.096;2023-07-30T10:08:16;12;11;
47741;PMS5003;33504;52.066;6.096;2023-07-30T10:10:48;12;10;
47741;PMS5003;33504;52.066;6.096;2023-07-30T10:13:16;11;11;
47741;PMS5003;33504;52.066;6.096;2023-07-30T10:15:44;12;11;
47741;PMS5003;33504;52.066;6.096;2023-07-30T10:18:12;15;13;
47741;PMS5003;33504;52.066;6.096;2023-07-30T10:20:40;14;12;
47741;PMS5003;33504;52.066;6.096;2023-07-30T10:23:12;23;22;
47741;PMS5003;33504;52.066;6.096;2023-07-30T10:25:43;13;12;
47741;PMS5003;33504;52.066;6.096;2023-07-30T10:28:32;21;20;
47741;PMS5003;33504;52.066;6.096;2023-07-30T10:31:00;14;13;
47741;PMS5003;33504;52.066;6.096;2023-07-30T10:33:43;35;35;
47741;PMS5003;33504;52.066;6.096;2023-07-30T10:36:11;38;38;
47741;PMS5003;33504;52.066;6.096;2023-07-30T10:38:38;18;17;
47741;PMS5003;33504;52.066;6.096;2023-07-30T10:41:06;8;8;
47741;PMS5003;33504;52.066;6.096;2023-07-30T10:43:34;8;7;
47741;PMS5003;33504;52.066;6.096;2023-07-30T10:46:02;10;10;
47741;PMS5003;33504;52.066;6.096;2023-07-30T10:48:30;11;8;
47741;PMS5003;33504;52.066;6.096;2023-07-30T10:51:00;21;21;
47741;PMS5003;33504;52.066;6.096;2023-07-30T10:53:28;9;8;
47741;PMS5003;33504;52.066;6.096;2023-07-30T10:55:57;10;8;
47741;PMS5003;33504;52.066;6.096;2023-07-30T10:58:25;10;9;
47741;PMS5003;33504;52.066;6.096;2023-07-30T11:00:52;19;18;
47741;PMS5003;33504;52.066;6.096;2023-07-30T11:03:20;20;19;
47741;PMS5003;33504;52.066;6.096;2023-07-30T11:05:50;10;10;
47741;PMS5003;33504;52.066;6.096;2023-07-30T11:08:17;10;9;
47741;PMS5003;33504;52.066;6.096;2023-07-30T11:10:44;7;6;
47741;PMS5003;33504;52.066;6.096;2023-07-30T11:13:12;5;5;
47741;PMS5003;33504;52.066;6.096;2023-07-30T11:15:40;4;4;
47741;PMS5003;33504;52.066;6.096;2023-07-30T11:18:08;5;4;
47741;PMS5003;33504;52.066;6.096;2023-07-30T11:20:35;4;4;
47741;PMS5003;33504;52.066;6.096;2023-07-30T11:23:03;4;4;
47741;PMS5003;33504;52.066;6.096;2023-07-30T11:25:45;4;3;
47741;PMS5003;33504;52.066;6.096;2023-07-30T11:28:13;2;2;
47741;PMS5003;33504;52.066;6.096;2023-07-30T11:30:40;2;2;
47741;PMS5003;33504;52.066;6.096;2023-07-30T11:33:07;4;3;
47741;PMS5003;33504;52.066;6.096;2023-07-30T11:35:41;5;3;
47741;PMS5003;33504;52.066;6.096;2023-07-30T11:38:08;3;2;
47741;PMS5003;33504;52.066;6.096;2023-07-30T11:40:35;4;4;
47741;PMS5003;33504;52.066;6.096;2023-07-30T11:43:04;5;4;
47741;PMS5003;33504;52.066;6.096;2023-07-30T11:45:31;5;3;
47741;PMS5003;33504;52.066;6.096;2023-07-30T11:48:05;6;5;
47741;PMS5003;33504;52.066;6.096;2023-07-30T11:50:41;2;2;
47741;PMS5003;33504;52.066;6.096;2023-07-30T11:53:09;5;4;
47741;PMS5003;33504;52.066;6.096;2023-07-30T11:55:37;4;2;
47741;PMS5003;33504;52.066;6.096;2023-07-30T11:58:05;7;4;
47741;PMS5003;33504;52.066;6.096;2023-07-30T12:00:32;3;3;
47741;PMS5003;33504;52.066;6.096;2023-07-30T12:03:01;4;3;
47741;PMS5003;33504;52.066;6.096;2023-07-30T12:05:32;3;2;
47741;PMS5003;33504;52.066;6.096;2023-07-30T12:08:00;4;3;
47741;PMS5003;33504;52.066;6.096;2023-07-30T12:10:27;3;3;
47741;PMS5003;33504;52.066;6.096;2023-07-30T12:12:55;6;5;
47741;PMS5003;33504;52.066;6.096;2023-07-30T12:15:21;5;3;
47741;PMS5003;33504;52.066;6.096;2023-07-30T12:17:48;5;4;
47741;PMS5003;33504;52.066;6.096;2023-07-30T12:20:16;1;1;
47741;PMS5003;33504;52.066;6.096;2023-07-30T12:22:43;3;3;
47741;PMS5003;33504;52.066;6.096;2023-07-30T12:25:11;4;3;
47741;PMS5003;33504;52.066;6.096;2023-07-30T12:27:38;4;2;
47741;PMS5003;33504;52.066;6.096;2023-07-30T12:30:06;2;2;
47741;PMS5003;33504;52.066;6.096;2023-07-30T12:32:34;2;2;
47741;PMS5003;33504;52.066;6.096;2023-07-30T12:35:01;2;2;
47741;PMS5003;33504;52.066;6.096;2023-07-30T12:37:28;3;1;
47741;PMS5003;33504;52.066;6.096;2023-07-30T12:39:55;2;2;
47741;PMS5003;33504;52.066;6.096;2023-07-30T12:42:23;3;2;
47741;PMS5003;33504;52.066;6.096;2023-07-30T12:44:50;2;1;
47741;PMS5003;33504;52.066;6.096;2023-07-30T12:47:17;2;2;
47741;PMS5003;33504;52.066;6.096;2023-07-30T12:49:45;1;1;
47741;PMS5003;33504;52.066;6.096;2023-07-30T12:52:12;1;1;
47741;PMS5003;33504;52.066;6.096;2023-07-30T12:54:39;3;2;
47741;PMS5003;33504;52.066;6.096;2023-07-30T12:57:07;1;0;
47741;PMS5003;33504;52.066;6.096;2023-07-30T12:59:34;1;1;
47741;PMS5003;33504;52.066;6.096;2023-07-30T13:02:02;1;1;
47741;PMS5003;33504;52.066;6.096;2023-07-30T13:04:29;2;2;
47741;PMS5003;33504;52.066;6.096;2023-07-30T13:06:56;0;0;
47741;PMS5003;33504;52.066;6.096;2023-07-30T13:09:23;2;1;
47741;PMS5003;33504;52.066;6.096;2023-07-30T13:11:51;0;0;
47741;PMS5003;33504;52.066;6.096;2023-07-30T13:14:18;1;1;
47741;PMS5003;33504;52.066;6.096;2023-07-30T13:16:45;1;1;
47741;PMS5003;33504;52.066;6.096;2023-07-30T13:19:13;2;2;
47741;PMS5003;33504;52.066;6.096;2023-07-30T13:21:40;0;0;
47741;PMS5003;33504;52.066;6.096;2023-07-30T13:24:08;2;2;
47741;PMS5003;33504;52.066;6.096;2023-07-30T13:26:35;2;1;
47741;PMS5003;33504;52.066;6.096;2023-07-30T13:29:02;0;0;
47741;PMS5003;33504;52.066;6.096;2023-07-30T13:31:30;0;0;
47741;PMS5003;33504;52.066;6.096;2023-07-30T13:33:57;3;2;
47741;PMS5003;33504;52.066;6.096;2023-07-30T13:36:24;0;0;
47741;PMS5003;33504;52.066;6.096;2023-07-30T13:38:52;0;0;
47741;PMS5003;33504;52.066;6.096;2023-07-30T13:41:19;1;1;
47741;PMS5003;33504;52.066;6.096;2023-07-30T13:43:46;1;1;
47741;PMS5003;33504;52.066;6.096;2023-07-30T13:46:14;2;2;
47741;PMS5003;33504;52.066;6.096;2023-07-30T13:48:41;1;0;
47741;PMS5003;33504;52.066;6.096;2023-07-30T13:51:09;1;1;
47741;PMS5003;33504;52.066;6.096;2023-07-30T13:53:36;2;1;
47741;PMS5003;33504;52.066;6.096;2023-07-30T13:56:03;0;0;
47741;PMS5003;33504;52.066;6.096;2023-07-30T13:58:31;1;1;
47741;PMS5003;33504;52.066;6.096;2023-07-30T14:00:58;2;1;
47741;PMS5003;33504;52.066;6.096;2023-07-30T14:03:25;2;2;
47741;PMS5003;33504;52.066;6.096;2023-07-30T14:05:53;0;0;
47741;PMS5003;33504;52.066;6.096;2023-07-30T14:08:20;1;1;
47741;PMS5003;33504;52.066;6.096;2023-07-30T14:10:47;1;0;
47741;PMS5003;33504;52.066;6.096;2023-07-30T14:13:15;1;1;
47741;PMS5003;33504;52.066;6.096;2023-07-30T14:15:42;2;1;
47741;PMS5003;33504;52.066;6.096;2023-07-30T14:18:10;2;1;
47741;PMS5003;33504;52.066;6.096;2023-07-30T14:20:37;1;1;
47741;PMS5003;33504;52.066;6.096;2023-07-30T14:23:04;4;4;
47741;PMS5003;33504;52.066;6.096;2023-07-30T14:25:31;11;10;
47741;PMS5003;33504;52.066;6.096;2023-07-30T14:27:59;5;4;
47741;PMS5003;33504;52.066;6.096;2023-07-30T14:30:26;4;3;
47741;PMS5003;33504;52.066;6.096;2023-07-30T14:32:53;14;13;
47741;PMS5003;33504;52.066;6.096;2023-07-30T14:35:20;7;7;
47741;PMS5003;33504;52.066;6.096;2023-07-30T14:37:48;4;3;
47741;PMS5003;33504;52.066;6.096;2023-07-30T14:40:15;5;5;
47741;PMS5003;33504;52.066;6.096;2023-07-30T14:42:43;2;2;
47741;PMS5003;33504;52.066;6.096;2023-07-30T14:45:10;2;2;
47741;PMS5003;33504;52.066;6.096;2023-07-30T14:47:37;2;2;
47741;PMS5003;33504;52.066;6.096;2023-07-30T14:50:05;2;2;
47741;PMS5003;33504;52.066;6.096;2023-07-30T14:52:34;3;2;
47741;PMS5003;33504;52.066;6.096;2023-07-30T14:55:01;1;1;
47741;PMS5003;33504;52.066;6.096;2023-07-30T14:57:28;3;2;
47741;PMS5003;33504;52.066;6.096;2023-07-30T14:59:56;2;1;
47741;PMS5003;33504;52.066;6.096;2023-07-30T15:02:23;2;2;
47741;PMS5003;33504;52.066;6.096;2023-07-30T15:04:50;0;0;
47741;PMS5003;33504;52.066;6.096;2023-07-30T15:07:18;2;2;
47741;PMS5003;33504;52.066;6.096;2023-07-30T15:09:45;1;1;
47741;PMS5003;33504;52.066;6.096;2023-07-30T15:12:12;4;1;
47741;PMS5003;33504;52.066;6.096;2023-07-30T15:14:40;2;2;
47741;PMS5003;33504;52.066;6.096;2023-07-30T15:17:07;3;3;
47741;PMS5003;33504;52.066;6.096;2023-07-30T15:19:35;2;2;
47741;PMS5003;33504;52.066;6.096;2023-07-30T15:22:02;1;1;
47741;PMS5003;33504;52.066;6.096;2023-07-30T15:24:29;2;2;
47741;PMS5003;33504;52.066;6.096;2023-07-30T15:26:57;1;1;
47741;PMS5003;33504;52.066;6.096;2023-07-30T15:29:24;3;2;
47741;PMS5003;33504;52.066;6.096;2023-07-30T15:31:51;1;1;
47741;PMS5003;33504;52.066;6.096;2023-07-30T15:34:19;4;3;
47741;PMS5003;33504;52.066;6.096;2023-07-30T15:36:46;2;2;
47741;PMS5003;33504;52.066;6.096;2023-07-30T15:39:13;3;3;
47741;PMS5003;33504;52.066;6.096;2023-07-30T15:41:41;3;2;
47741;PMS5003;33504;52.066;6.096;2023-07-30T15:44:08;4;3;
47741;PMS5003;33504;52.066;6.096;2023-07-30T15:46:36;5;3;
47741;PMS5003;33504;52.066;6.096;2023-07-30T15:49:03;2;2;
47741;PMS5003;33504;52.066;6.096;2023-07-30T15:51:30;2;2;
47741;PMS5003;33504;52.066;6.096;2023-07-30T15:53:57;3;2;
47741;PMS5003;33504;52.066;6.096;2023-07-30T15:56:25;1;1;
47741;PMS5003;33504;52.066;6.096;2023-07-30T15:58:52;1;1;
47741;PMS5003;33504;52.066;6.096;2023-07-30T16:01:19;2;1;
47741;PMS5003;33504;52.066;6.096;2023-07-30T16:03:47;3;1;
47741;PMS5003;33504;52.066;6.096;2023-07-30T16:06:14;3;3;
47741;PMS5003;33504;52.066;6.096;2023-07-30T16:08:42;2;2;
47741;PMS5003;33504;52.066;6.096;2023-07-30T16:11:10;1;1;
47741;PMS5003;33504;52.066;6.096;2023-07-30T16:13:37;2;2;
47741;PMS5003;33504;52.066;6.096;2023-07-30T16:16:08;3;3;
47741;PMS5003;33504;52.066;6.096;2023-07-30T16:18:35;4;4;
47741;PMS5003;33504;52.066;6.096;2023-07-30T16:21:03;5;4;
47741;PMS5003;33504;52.066;6.096;2023-07-30T16:23:31;3;3;
47741;PMS5003;33504;52.066;6.096;2023-07-30T16:25:58;4;2;
47741;PMS5003;33504;52.066;6.096;2023-07-30T16:28:25;3;1;
47741;PMS5003;33504;52.066;6.096;2023-07-30T16:30:53;5;4;
47741;PMS5003;33504;52.066;6.096;2023-07-30T16:33:20;6;4;
47741;PMS5003;33504;52.066;6.096;2023-07-30T16:35:48;4;3;
47741;PMS5003;33504;52.066;6.096;2023-07-30T16:38:16;4;3;